createdAt,value
2018-09-10T00:00:46.769Z,89.12
2018-09-10T00:01:46.827Z,89.27
2018-09-10T00:02:46.891Z,88.60
2018-09-10T00:03:46.954Z,88.22
2018-09-10T00:04:47.027Z,88.84
2018-09-10T00:05:47.086Z,88.26
2018-09-10T00:06:47.146Z,88.26
2018-09-10T00:07:47.212Z,87.78
2018-09-10T00:08:47.274Z,88.26
2018-09-10T00:09:47.342Z,87.98
2018-09-10T00:10:47.411Z,87.88
2018-09-10T00:11:47.467Z,88.17
2018-09-10T00:12:47.531Z,89.12
2018-09-10T00:13:47.595Z,89.12
2018-09-10T00:14:47.671Z,87.88
2018-09-10T00:15:47.731Z,87.21
2018-09-10T00:16:47.787Z,87.98
2018-09-10T00:17:47.851Z,87.68
2018-09-10T00:18:47.915Z,87.78
2018-09-10T00:19:47.995Z,87.30
2018-09-10T00:20:48.057Z,87.68
2018-09-10T00:21:48.107Z,87.30
2018-09-10T00:22:48.183Z,86.72
2018-09-10T00:23:48.239Z,87.01
2018-09-10T00:24:48.299Z,86.82
2018-09-10T00:25:48.731Z,86.82
2018-09-10T00:26:48.432Z,86.44
2018-09-10T00:27:48.491Z,85.86
2018-09-10T00:28:48.560Z,85.86
2018-09-10T00:29:48.623Z,85.48
2018-09-10T00:30:48.688Z,86.15
2018-09-10T00:31:48.859Z,85.58
2018-09-10T00:32:48.816Z,85.67
2018-09-10T00:33:48.880Z,86.54
2018-09-10T00:34:48.944Z,86.25
2018-09-10T00:35:49.008Z,85.96
2018-09-10T00:36:49.172Z,85.86
2018-09-10T00:37:49.140Z,86.15
2018-09-10T00:38:49.200Z,86.05
2018-09-10T00:39:49.268Z,85.86
2018-09-10T00:40:49.327Z,85.48
2018-09-10T00:41:49.400Z,85.67
2018-09-10T00:42:49.464Z,84.71
2018-09-10T00:43:49.520Z,85.38
2018-09-10T00:44:49.584Z,85.96
2018-09-10T00:45:49.648Z,86.82
2018-09-10T00:46:49.720Z,87.21
2018-09-10T00:47:49.784Z,87.68
2018-09-10T00:48:49.844Z,87.01
2018-09-10T00:49:49.910Z,86.05
2018-09-10T00:50:49.972Z,86.25
2018-09-10T00:51:50.070Z,87.78
2018-09-10T00:52:50.108Z,87.88
2018-09-10T00:53:50.165Z,87.59
2018-09-10T00:54:50.228Z,88.07
2018-09-10T00:55:50.292Z,87.93
2018-09-10T00:56:50.364Z,88.60
2018-09-10T00:57:50.428Z,87.93
2018-09-10T00:58:50.486Z,89.56
2018-09-10T00:59:50.548Z,90.04
2018-09-10T01:00:50.613Z,89.18
2018-09-10T01:01:50.684Z,88.02
2018-09-10T01:02:50.753Z,88.79
2018-09-10T01:03:50.805Z,88.12
2018-09-10T01:04:50.869Z,88.22
2018-09-10T01:05:50.937Z,87.84
2018-09-10T01:06:51.004Z,88.22
2018-09-10T01:07:51.069Z,87.45
2018-09-10T01:08:51.133Z,88.51
2018-09-10T01:09:51.196Z,89.37
2018-09-10T01:10:51.257Z,89.37
2018-09-10T01:11:51.505Z,89.08
2018-09-10T01:12:51.392Z,89.56
2018-09-10T01:13:51.460Z,90.04
2018-09-10T01:14:51.513Z,89.75
2018-09-10T01:15:51.580Z,88.51
2018-09-10T01:16:51.653Z,88.60
2018-09-10T01:17:51.713Z,88.41
2018-09-10T01:18:51.770Z,87.74
2018-09-10T01:19:51.834Z,87.64
2018-09-10T01:20:51.897Z,87.74
2018-09-10T01:21:51.969Z,88.12
2018-09-10T01:22:52.034Z,88.51
2018-09-10T01:23:52.089Z,88.51
2018-09-10T01:24:52.153Z,87.84
2018-09-10T01:25:52.218Z,88.60
2018-09-10T01:26:52.385Z,88.41
2018-09-10T01:27:52.345Z,87.74
2018-09-10T01:28:52.410Z,89.18
2018-09-10T01:29:52.477Z,91.38
2018-09-10T01:30:52.545Z,90.23
2018-09-10T01:31:52.611Z,89.85
2018-09-10T01:32:52.673Z,88.70
2018-09-10T01:33:52.738Z,87.55
2018-09-10T01:34:52.799Z,87.74
2018-09-10T01:35:52.861Z,88.31
2018-09-10T01:36:52.930Z,88.70
2018-09-10T01:37:52.998Z,87.45
2018-09-10T01:38:53.054Z,87.93
2018-09-10T01:39:53.126Z,87.45
2018-09-10T01:40:53.182Z,87.64
2018-09-10T01:41:53.315Z,87.07
2018-09-10T01:42:53.314Z,87.45
2018-09-10T01:43:53.374Z,87.84
2018-09-10T01:44:53.438Z,89.18
2018-09-10T01:45:53.502Z,88.02
2018-09-10T01:46:53.574Z,88.60
2018-09-10T01:47:53.638Z,88.22
2018-09-10T01:48:53.695Z,86.97
2018-09-10T01:49:53.759Z,87.16
2018-09-10T01:50:53.822Z,87.16
2018-09-10T01:51:53.895Z,87.16
2018-09-10T01:52:53.959Z,87.26
2018-09-10T01:53:54.014Z,86.88
2018-09-10T01:54:54.082Z,88.02
2018-09-10T01:55:54.147Z,88.70
2018-09-10T01:56:54.234Z,88.02
2018-09-10T01:57:54.274Z,89.37
2018-09-10T01:58:54.339Z,89.27
2018-09-10T01:59:54.406Z,88.70
2018-09-10T02:00:54.467Z,88.84
2018-09-10T02:01:54.539Z,89.04
2018-09-10T02:02:54.603Z,90.47
2018-09-10T02:03:54.659Z,92.97
2018-09-10T02:04:54.723Z,91.82
2018-09-10T02:05:54.788Z,92.30
2018-09-10T02:06:54.863Z,91.91
2018-09-10T02:07:54.923Z,92.01
2018-09-10T02:08:54.979Z,92.30
2018-09-10T02:09:55.039Z,93.88
2018-09-10T02:10:55.107Z,94.35
2018-09-10T02:11:55.267Z,97.14
2018-09-10T02:12:55.235Z,94.93
2018-09-10T02:13:55.299Z,94.17
2018-09-10T02:14:55.365Z,94.07
2018-09-10T02:15:55.428Z,95.60
2018-09-10T02:16:55.505Z,96.47
2018-09-10T02:17:55.564Z,98.96
2018-09-10T02:18:55.619Z,99.99
2018-09-10T02:19:55.684Z,98.86
2018-09-10T02:20:55.753Z,97.80
2018-09-10T02:21:55.819Z,98.00
2018-09-10T02:22:55.886Z,98.10
2018-09-10T02:23:55.940Z,98.57
2018-09-10T02:24:56.004Z,99.99
2018-09-10T02:25:56.072Z,99.99
2018-09-10T02:26:56.160Z,99.99
2018-09-10T02:27:56.196Z,99.99
2018-09-10T02:28:56.260Z,99.99
2018-09-10T02:29:56.328Z,99.99
2018-09-10T02:30:56.392Z,99.99
2018-09-10T02:31:56.461Z,99.99
2018-09-10T02:32:56.536Z,99.99
2018-09-10T02:33:56.580Z,99.99
2018-09-10T02:34:56.644Z,99.99
2018-09-10T02:35:56.712Z,99.99
2018-09-10T02:36:56.780Z,99.99
2018-09-10T02:37:56.847Z,99.99
2018-09-10T02:38:56.900Z,99.99
2018-09-10T02:39:56.965Z,99.99
2018-09-10T02:40:57.028Z,99.99
2018-09-10T02:41:57.365Z,99.99
2018-09-10T02:42:57.157Z,99.99
2018-09-10T02:43:57.221Z,99.99
2018-09-10T02:44:57.284Z,99.99
2018-09-10T02:45:57.349Z,99.99
2018-09-10T02:46:57.421Z,99.99
2018-09-10T02:47:57.485Z,99.99
2018-09-10T02:48:57.544Z,99.99
2018-09-10T02:49:57.606Z,99.99
2018-09-10T02:50:57.669Z,99.99
2018-09-10T02:51:57.741Z,99.99
2018-09-10T02:52:57.805Z,99.99
2018-09-10T02:53:57.861Z,99.99
2018-09-10T02:54:57.988Z,99.99
2018-09-10T02:55:57.989Z,99.99
2018-09-10T02:56:58.061Z,99.99
2018-09-10T02:57:58.131Z,99.99
2018-09-10T02:58:58.181Z,99.99
2018-09-10T02:59:58.245Z,99.99
2018-09-10T03:00:58.309Z,99.99
2018-09-10T03:01:58.382Z,99.99
2018-09-10T03:02:58.443Z,99.99
2018-09-10T03:03:58.500Z,99.99
2018-09-10T03:04:58.562Z,99.99
2018-09-10T03:05:58.626Z,99.99
2018-09-10T03:06:58.698Z,99.99
2018-09-10T03:07:58.762Z,99.99
2018-09-10T03:08:58.818Z,99.99
2018-09-10T03:09:58.882Z,99.99
2018-09-10T03:10:58.946Z,99.99
2018-09-10T03:11:59.018Z,99.99
2018-09-10T03:12:59.082Z,99.99
2018-09-10T03:13:59.138Z,99.99
2018-09-10T03:14:59.203Z,99.99
2018-09-10T03:15:59.266Z,99.99
2018-09-10T03:16:59.338Z,99.99
2018-09-10T03:17:59.476Z,99.99
2018-09-10T03:18:59.458Z,99.99
2018-09-10T03:19:59.523Z,99.99
2018-09-10T03:20:59.588Z,99.99
2018-09-10T03:21:59.658Z,99.99
2018-09-10T03:22:59.718Z,99.99
2018-09-10T03:23:59.830Z,99.99
2018-09-10T03:24:59.838Z,99.99
2018-09-10T03:25:59.902Z,99.99
2018-09-10T03:26:59.974Z,99.99
2018-09-10T03:28:00.038Z,99.99
2018-09-10T03:29:00.095Z,99.99
2018-09-10T03:30:00.161Z,99.99
2018-09-10T03:31:00.229Z,99.99
2018-09-10T03:32:00.296Z,99.99
2018-09-10T03:33:00.503Z,99.99
2018-09-10T03:34:00.414Z,99.99
2018-09-10T03:35:00.479Z,99.99
2018-09-10T03:36:00.547Z,99.99
2018-09-10T03:37:00.602Z,99.99
2018-09-10T03:38:00.674Z,99.99
2018-09-10T03:39:00.739Z,99.99
2018-09-10T03:40:00.794Z,99.99
2018-09-10T03:41:00.858Z,99.99
2018-09-10T03:42:00.923Z,99.99
2018-09-10T03:43:00.994Z,99.99
2018-09-10T03:44:01.059Z,99.99
2018-09-10T03:45:01.115Z,99.99
2018-09-10T03:46:01.183Z,99.99
2018-09-10T03:47:01.243Z,99.99
2018-09-10T03:48:01.303Z,99.99
2018-09-10T03:49:01.403Z,99.99
2018-09-10T03:50:01.431Z,99.99
2018-09-10T03:51:01.496Z,99.99
2018-09-10T03:52:01.559Z,99.99
2018-09-10T03:53:01.623Z,99.99
2018-09-10T03:54:01.695Z,99.99
2018-09-10T03:55:01.759Z,99.99
2018-09-10T03:56:01.815Z,99.99
2018-09-10T03:57:01.883Z,99.99
2018-09-10T03:58:01.944Z,99.99
2018-09-10T03:59:02.011Z,99.99
2018-09-10T04:00:02.079Z,99.99
2018-09-10T04:01:02.132Z,99.99
2018-09-10T04:02:02.195Z,99.99
2018-09-10T04:03:02.260Z,99.99
2018-09-10T04:04:02.415Z,99.99
2018-09-10T04:05:02.388Z,99.99
2018-09-10T04:06:02.455Z,99.99
2018-09-10T04:07:02.516Z,99.99
2018-09-10T04:08:02.579Z,99.99
2018-09-10T04:09:02.672Z,99.99
2018-09-10T04:10:02.712Z,99.99
2018-09-10T04:11:02.772Z,99.99
2018-09-10T04:12:02.848Z,99.99
2018-09-10T04:13:02.896Z,99.99
2018-09-10T04:14:02.968Z,99.99
2018-09-10T04:15:03.032Z,99.99
2018-09-10T04:16:03.088Z,99.99
2018-09-10T04:17:03.179Z,99.99
2018-09-10T04:18:03.220Z,99.99
2018-09-10T04:19:03.361Z,99.99
2018-09-10T04:20:03.344Z,99.99
2018-09-10T04:21:03.408Z,99.99
2018-09-10T04:22:03.472Z,99.99
2018-09-10T04:23:03.536Z,99.99
2018-09-10T04:24:03.604Z,99.99
2018-09-10T04:25:03.668Z,99.99
2018-09-10T04:26:03.742Z,99.99
2018-09-10T04:27:03.797Z,99.99
2018-09-10T04:28:03.852Z,99.99
2018-09-10T04:29:03.924Z,99.99
2018-09-10T04:30:03.988Z,99.99
2018-09-10T04:31:04.045Z,99.99
2018-09-10T04:32:04.113Z,99.99
2018-09-10T04:33:04.172Z,99.99
2018-09-10T04:34:04.236Z,99.99
2018-09-10T04:35:04.328Z,99.99
2018-09-10T04:36:04.438Z,99.99
2018-09-10T04:37:04.428Z,99.99
2018-09-10T04:38:04.493Z,99.99
2018-09-10T04:39:04.557Z,99.99
2018-09-10T04:40:04.625Z,99.99
2018-09-10T04:41:04.693Z,99.99
2018-09-10T04:42:04.759Z,99.99
2018-09-10T04:43:04.813Z,99.99
2018-09-10T04:44:04.873Z,99.99
2018-09-10T04:45:04.946Z,99.99
2018-09-10T04:46:05.010Z,99.99
2018-09-10T04:47:05.065Z,99.99
2018-09-10T04:48:05.131Z,99.99
2018-09-10T04:49:05.193Z,99.99
2018-09-10T04:50:05.414Z,99.99
2018-09-10T04:51:05.322Z,99.99
2018-09-10T04:52:05.385Z,99.99
2018-09-10T04:53:05.449Z,99.99
2018-09-10T04:54:05.518Z,99.99
2018-09-10T04:55:05.585Z,99.99
2018-09-10T04:56:05.661Z,99.99
2018-09-10T04:57:05.706Z,99.99
2018-09-10T04:58:05.828Z,99.99
2018-09-10T04:59:05.834Z,99.99
2018-09-10T05:00:05.902Z,99.99
2018-09-10T05:01:05.966Z,99.99
2018-09-10T05:02:06.027Z,99.99
2018-09-10T05:03:06.097Z,99.99
2018-09-10T05:04:06.154Z,99.99
2018-09-10T05:05:06.222Z,99.99
2018-09-10T05:06:06.302Z,99.99
2018-09-10T05:07:06.348Z,99.99
2018-09-10T05:08:06.410Z,99.99
2018-09-10T05:09:06.474Z,99.99
2018-09-10T05:10:06.590Z,99.99
2018-09-10T05:11:06.605Z,99.99
2018-09-10T05:12:06.670Z,99.99
2018-09-10T05:13:06.726Z,99.99
2018-09-10T05:14:06.866Z,99.99
2018-09-10T05:15:06.866Z,99.99
2018-09-10T05:16:06.926Z,99.99
2018-09-10T05:17:06.990Z,99.99
2018-09-10T05:18:07.046Z,99.99
2018-09-10T05:19:07.110Z,99.99
2018-09-10T05:20:07.174Z,99.99
2018-09-10T05:21:07.262Z,99.99
2018-09-10T05:22:07.345Z,99.99
2018-09-10T05:23:07.390Z,99.99
2018-09-10T05:24:07.430Z,99.99
2018-09-10T05:25:07.494Z,99.99
2018-09-10T05:26:07.575Z,99.99
2018-09-10T05:27:07.630Z,99.99
2018-09-10T05:28:07.735Z,99.99
2018-09-10T05:29:07.750Z,99.99
2018-09-10T05:30:07.818Z,99.99
2018-09-10T05:31:07.887Z,99.99
2018-09-10T05:32:07.955Z,99.99
2018-09-10T05:33:08.007Z,99.99
2018-09-10T05:34:08.071Z,99.99
2018-09-10T05:35:08.155Z,99.99
2018-09-10T05:36:08.331Z,99.99
2018-09-10T05:37:08.263Z,99.99
2018-09-10T05:38:08.328Z,99.99
2018-09-10T05:39:08.465Z,99.99
2018-09-10T05:40:08.455Z,99.99
2018-09-10T05:41:08.529Z,99.99
2018-09-10T05:42:08.588Z,99.99
2018-09-10T05:43:08.647Z,99.99
2018-09-10T05:44:08.711Z,99.99
2018-09-10T05:45:08.775Z,99.99
2018-09-10T05:46:08.847Z,99.99
2018-09-10T05:47:08.911Z,99.99
2018-09-10T05:48:08.967Z,99.99
2018-09-10T05:49:09.034Z,99.99
2018-09-10T05:50:09.100Z,99.99
2018-09-10T05:51:09.392Z,99.99
2018-09-10T05:52:09.224Z,99.99
2018-09-10T05:53:09.312Z,99.99
2018-09-10T05:54:09.352Z,99.99
2018-09-10T05:55:09.416Z,99.99
2018-09-10T05:56:09.484Z,99.99
2018-09-10T05:57:09.551Z,99.99
2018-09-10T05:58:09.608Z,99.99
2018-09-10T05:59:09.678Z,99.99
2018-09-10T06:00:09.736Z,99.99
2018-09-10T06:01:09.804Z,99.99
2018-09-10T06:02:09.868Z,99.99
2018-09-10T06:03:09.928Z,99.99
2018-09-10T06:04:09.992Z,99.99
2018-09-10T06:05:10.063Z,99.99
2018-09-10T06:06:10.208Z,99.99
2018-09-10T06:07:10.186Z,99.99
2018-09-10T06:08:10.249Z,99.99
2018-09-10T06:09:10.313Z,99.99
2018-09-10T06:10:10.377Z,99.99
2018-09-10T06:11:10.449Z,99.99
2018-09-10T06:12:10.513Z,99.99
2018-09-10T06:13:10.573Z,99.99
2018-09-10T06:14:10.636Z,99.99
2018-09-10T06:15:10.701Z,99.99
2018-09-10T06:16:10.769Z,99.99
2018-09-10T06:17:10.833Z,99.99
2018-09-10T06:18:10.899Z,99.99
2018-09-10T06:19:10.953Z,99.99
2018-09-10T06:20:11.017Z,99.99
2018-09-10T06:21:11.126Z,99.99
2018-09-10T06:22:11.196Z,99.99
2018-09-10T06:23:11.209Z,99.99
2018-09-10T06:24:11.276Z,99.99
2018-09-10T06:25:11.351Z,99.99
2018-09-10T06:26:11.428Z,99.99
2018-09-10T06:27:11.477Z,99.99
2018-09-10T06:28:11.549Z,99.99
2018-09-10T06:29:11.597Z,99.99
2018-09-10T06:30:11.714Z,99.99
2018-09-10T06:31:11.737Z,99.99
2018-09-10T06:32:11.813Z,99.99
2018-09-10T06:33:11.858Z,99.99
2018-09-10T06:34:11.970Z,99.99
2018-09-10T06:35:11.982Z,99.39
2018-09-10T06:36:12.053Z,99.77
2018-09-10T06:37:12.185Z,99.99
2018-09-10T06:38:12.177Z,99.99
2018-09-10T06:39:12.242Z,99.99
2018-09-10T06:40:12.306Z,99.20
2018-09-10T06:41:12.378Z,98.91
2018-09-10T06:42:12.442Z,97.19
2018-09-10T06:43:12.497Z,97.38
2018-09-10T06:44:12.563Z,96.56
2018-09-10T06:45:12.628Z,98.19
2018-09-10T06:46:12.698Z,98.86
2018-09-10T06:47:12.763Z,98.29
2018-09-10T06:48:12.818Z,98.86
2018-09-10T06:49:12.887Z,99.92
2018-09-10T06:50:12.950Z,98.19
2018-09-10T06:51:13.022Z,98.96
2018-09-10T06:52:13.086Z,98.58
2018-09-10T06:53:13.142Z,99.99
2018-09-10T06:54:13.210Z,95.79
2018-09-10T06:55:13.270Z,94.83
2018-09-10T06:56:13.342Z,94.69
2018-09-10T06:57:13.406Z,94.01
2018-09-10T06:58:13.469Z,94.69
2018-09-10T06:59:13.530Z,93.92
2018-09-10T07:00:13.618Z,94.98
2018-09-10T07:01:13.675Z,94.88
2018-09-10T07:02:13.733Z,96.70
2018-09-10T07:03:13.791Z,93.92
2018-09-10T07:04:13.856Z,95.26
2018-09-10T07:05:13.920Z,95.07
2018-09-10T07:06:14.009Z,95.36
2018-09-10T07:07:14.063Z,94.78
2018-09-10T07:08:14.115Z,93.44
2018-09-10T07:09:14.177Z,93.34
2018-09-10T07:10:14.243Z,94.54
2018-09-10T07:11:14.311Z,93.77
2018-09-10T07:12:14.511Z,94.35
2018-09-10T07:13:14.462Z,92.91
2018-09-10T07:14:14.503Z,92.24
2018-09-10T07:15:14.567Z,90.99
2018-09-10T07:16:14.631Z,91.56
2018-09-10T07:17:14.704Z,93.77
2018-09-10T07:18:14.768Z,91.95
2018-09-10T07:19:14.834Z,91.75
2018-09-10T07:20:14.891Z,90.45
2018-09-10T07:21:14.955Z,91.22
2018-09-10T07:22:15.027Z,91.52
2018-09-10T07:23:15.093Z,92.09
2018-09-10T07:24:15.151Z,91.99
2018-09-10T07:25:15.215Z,91.61
2018-09-10T07:26:15.280Z,90.07
2018-09-10T07:27:15.351Z,89.59
2018-09-10T07:28:15.415Z,88.82
2018-09-10T07:29:15.472Z,89.83
2018-09-10T07:30:15.551Z,89.64
2018-09-10T07:31:15.608Z,89.54
2018-09-10T07:32:15.681Z,88.29
2018-09-10T07:33:15.748Z,90.02
2018-09-10T07:34:15.804Z,89.35
2018-09-10T07:35:15.868Z,88.87
2018-09-10T07:36:15.932Z,88.77
2018-09-10T07:37:16.004Z,89.64
2018-09-10T07:38:16.072Z,89.40
2018-09-10T07:39:16.132Z,90.41
2018-09-10T07:40:16.196Z,90.21
2018-09-10T07:41:16.260Z,90.12
2018-09-10T07:42:16.348Z,89.92
2018-09-10T07:43:16.392Z,90.98
2018-09-10T07:44:16.461Z,89.35
2018-09-10T07:45:16.524Z,91.27
2018-09-10T07:46:16.588Z,91.94
2018-09-10T07:47:16.660Z,91.85
2018-09-10T07:48:16.724Z,90.21
2018-09-10T07:49:16.794Z,91.08
2018-09-10T07:50:16.867Z,90.79
2018-09-10T07:51:16.916Z,91.17
2018-09-10T07:52:16.988Z,90.69
2018-09-10T07:53:17.056Z,91.36
2018-09-10T07:54:17.112Z,90.69
2018-09-10T07:55:17.185Z,90.21
2018-09-10T07:56:17.244Z,91.27
2018-09-10T07:57:17.309Z,91.51
2018-09-10T07:58:17.404Z,89.49
2018-09-10T07:59:17.445Z,89.68
2018-09-10T08:00:17.505Z,90.16
2018-09-10T08:01:17.572Z,89.58
2018-09-10T08:02:17.636Z,90.45
2018-09-10T08:03:17.709Z,90.26
2018-09-10T08:04:17.776Z,89.49
2018-09-10T08:05:17.836Z,89.68
2018-09-10T08:06:17.901Z,90.26
2018-09-10T08:07:17.968Z,89.78
2018-09-10T08:08:18.036Z,90.64
2018-09-10T08:09:18.130Z,91.51
2018-09-10T08:10:18.165Z,90.83
2018-09-10T08:11:18.229Z,90.45
2018-09-10T08:12:18.301Z,90.64
2018-09-10T08:13:18.369Z,92.18
2018-09-10T08:14:18.433Z,91.99
2018-09-10T08:15:18.493Z,91.99
2018-09-10T08:16:18.557Z,92.18
2018-09-10T08:17:18.627Z,93.15
2018-09-10T08:18:18.697Z,91.70
2018-09-10T08:19:18.763Z,90.83
2018-09-10T08:20:18.821Z,91.13
2018-09-10T08:21:18.889Z,91.89
2018-09-10T08:22:18.953Z,91.84
2018-09-10T08:23:19.026Z,90.11
2018-09-10T08:24:19.171Z,90.50
2018-09-10T08:25:19.199Z,91.36
2018-09-10T08:26:19.218Z,90.97
2018-09-10T08:27:19.288Z,91.17
2018-09-10T08:28:19.354Z,90.16
2018-09-10T08:29:19.422Z,89.19
2018-09-10T08:30:19.494Z,89.86
2018-09-10T08:31:19.550Z,89.77
2018-09-10T08:32:19.615Z,89.09
2018-09-10T08:33:19.685Z,90.16
2018-09-10T08:34:19.754Z,89.77
2018-09-10T08:35:19.818Z,89.29
2018-09-10T08:36:19.877Z,88.32
2018-09-10T08:37:19.947Z,88.61
2018-09-10T08:38:20.018Z,88.42
2018-09-10T08:39:20.089Z,88.23
2018-09-10T08:40:20.146Z,88.37
2018-09-10T08:41:20.210Z,88.51
2018-09-10T08:42:20.280Z,87.68
2018-09-10T08:43:20.350Z,85.21
2018-09-10T08:44:20.419Z,80.94
2018-09-10T08:45:20.482Z,76.18
2018-09-10T08:46:20.547Z,78.31
2018-09-10T08:47:20.614Z,76.62
2018-09-10T08:48:20.713Z,75.27
2018-09-10T08:49:20.758Z,75.56
2018-09-10T08:50:20.818Z,75.63
2018-09-10T08:51:20.887Z,72.67
2018-09-10T08:52:20.956Z,70.61
2018-09-10T08:53:21.031Z,70.70
2018-09-10T08:54:21.314Z,70.06
2018-09-10T08:55:21.254Z,68.99
2018-09-10T08:56:21.345Z,70.61
2018-09-10T08:57:21.298Z,70.41
2018-09-10T08:58:21.471Z,70.05
2018-09-10T08:59:21.435Z,71.89
2018-09-10T09:00:21.548Z,72.92
2018-09-10T09:01:21.575Z,73.60
2018-09-10T09:02:21.642Z,73.43
2018-09-10T09:03:21.719Z,74.40
2018-09-10T09:04:21.787Z,74.73
2018-09-10T09:05:21.851Z,73.57
2018-09-10T09:06:21.989Z,72.44
2018-09-10T09:07:21.991Z,72.53
2018-09-10T09:08:22.067Z,72.83
2018-09-10T09:09:22.145Z,72.05
2018-09-10T09:10:22.199Z,70.34
2018-09-10T09:11:22.267Z,70.44
2018-09-10T09:12:22.335Z,71.99
2018-09-10T09:13:22.411Z,72.51
2018-09-10T09:14:22.483Z,71.28
2018-09-10T09:15:22.550Z,71.34
2018-09-10T09:16:22.615Z,71.38
2018-09-10T09:17:22.735Z,70.83
2018-09-10T09:18:22.763Z,70.61
2018-09-10T09:19:22.831Z,69.34
2018-09-10T09:20:22.891Z,68.96
2018-09-10T09:21:22.964Z,70.31
2018-09-10T09:22:23.036Z,71.70
2018-09-10T09:23:23.379Z,70.06
2018-09-10T09:24:23.172Z,70.09
2018-09-10T09:25:23.244Z,70.15
2018-09-10T09:26:23.318Z,70.45
2018-09-10T09:27:23.388Z,69.38
2018-09-10T09:28:23.460Z,69.57
2018-09-10T09:29:23.532Z,70.03
2018-09-10T09:30:23.657Z,70.51
2018-09-10T09:31:23.671Z,71.34
2018-09-10T09:32:23.736Z,71.34
2018-09-10T09:33:23.818Z,70.28
2018-09-10T09:34:23.884Z,70.03
2018-09-10T09:35:23.948Z,71.58
2018-09-10T09:36:24.098Z,70.35
2018-09-10T09:37:24.090Z,69.41
2018-09-10T09:38:24.252Z,69.41
2018-09-10T09:39:24.234Z,68.28
2018-09-10T09:40:24.296Z,67.80
2018-09-10T09:41:24.368Z,67.73
2018-09-10T09:42:24.440Z,67.34
2018-09-10T09:43:24.538Z,65.56
2018-09-10T09:44:24.589Z,67.02
2018-09-10T09:45:24.652Z,66.79
2018-09-10T09:46:24.720Z,64.53
2018-09-10T09:47:24.792Z,65.72
2018-09-10T09:48:24.868Z,64.17
2018-09-10T09:49:24.940Z,64.78
2018-09-10T09:50:25.005Z,64.26
2018-09-10T09:51:25.077Z,62.51
2018-09-10T09:52:25.149Z,63.81
2018-09-10T09:53:25.373Z,64.98
2018-09-10T09:54:25.288Z,64.20
2018-09-10T09:55:25.361Z,65.01
2018-09-10T09:56:25.432Z,62.51
2018-09-10T09:57:25.504Z,63.39
2018-09-10T09:58:25.581Z,61.99
2018-09-10T09:59:25.654Z,62.77
2018-09-10T10:00:25.717Z,62.57
2018-09-10T10:01:25.790Z,63.48
2018-09-10T10:02:25.861Z,62.87
2018-09-10T10:03:25.937Z,63.13
2018-09-10T10:04:26.069Z,63.87
2018-09-10T10:05:26.072Z,64.85
2018-09-10T10:06:26.149Z,64.59
2018-09-10T10:07:26.217Z,65.98
2018-09-10T10:08:26.301Z,67.08
2018-09-10T10:09:26.457Z,67.24
2018-09-10T10:10:26.433Z,67.11
2018-09-10T10:11:26.501Z,68.73
2018-09-10T10:12:26.683Z,69.41
2018-09-10T10:13:26.645Z,68.44
2018-09-10T10:14:26.721Z,69.50
2018-09-10T10:15:26.793Z,68.63
2018-09-10T10:16:26.918Z,69.79
2018-09-10T10:17:26.929Z,69.44
2018-09-10T10:18:27.002Z,67.79
2018-09-10T10:19:27.181Z,68.21
2018-09-10T10:20:27.142Z,68.35
2018-09-10T10:21:27.214Z,66.50
2018-09-10T10:22:27.285Z,67.83
2018-09-10T10:23:27.354Z,66.66
2018-09-10T10:24:27.433Z,67.31
2018-09-10T10:25:27.502Z,66.82
2018-09-10T10:26:27.572Z,66.40
2018-09-10T10:27:27.638Z,65.98
2018-09-10T10:28:27.710Z,67.11
2018-09-10T10:29:27.810Z,67.69
2018-09-10T10:30:27.858Z,68.18
2018-09-10T10:31:27.922Z,68.02
2018-09-10T10:32:27.994Z,68.41
2018-09-10T10:33:28.062Z,67.28
2018-09-10T10:34:28.134Z,65.72
2018-09-10T10:35:28.298Z,65.43
2018-09-10T10:36:28.274Z,65.56
2018-09-10T10:37:28.350Z,63.49
2018-09-10T10:38:28.423Z,62.64
2018-09-10T10:39:28.486Z,62.35
2018-09-10T10:40:28.562Z,61.70
2018-09-10T10:41:28.635Z,60.79
2018-09-10T10:42:28.702Z,61.51
2018-09-10T10:43:28.770Z,62.57
2018-09-10T10:44:28.845Z,61.77
2018-09-10T10:45:28.921Z,61.05
2018-09-10T10:46:28.995Z,61.84
2018-09-10T10:47:29.117Z,64.01
2018-09-10T10:48:29.122Z,64.26
2018-09-10T10:49:29.197Z,64.65
2018-09-10T10:50:29.270Z,64.07
2018-09-10T10:51:29.354Z,64.43
2018-09-10T10:52:29.407Z,64.53
2018-09-10T10:53:29.481Z,65.66
2018-09-10T10:54:29.553Z,66.69
2018-09-10T10:55:29.622Z,67.40
2018-09-10T10:56:29.699Z,68.47
2018-09-10T10:57:29.767Z,68.02
2018-09-10T10:58:29.831Z,65.69
2018-09-10T10:59:29.944Z,65.40
2018-09-10T11:00:29.976Z,65.69
2018-09-10T11:01:30.054Z,65.40
2018-09-10T11:02:30.119Z,64.95
2018-09-10T11:03:30.187Z,66.89
2018-09-10T11:04:30.256Z,67.66
2018-09-10T11:05:30.328Z,67.27
2018-09-10T11:06:30.411Z,67.14
2018-09-10T11:07:30.472Z,67.24
2018-09-10T11:08:30.536Z,67.63
2018-09-10T11:09:30.612Z,67.95
2018-09-10T11:10:30.682Z,66.79
2018-09-10T11:11:30.755Z,67.31
2018-09-10T11:12:30.824Z,65.14
2018-09-10T11:13:30.887Z,65.50
2018-09-10T11:14:30.960Z,66.60
2018-09-10T11:15:31.044Z,67.11
2018-09-10T11:16:31.333Z,65.95
2018-09-10T11:17:31.176Z,65.85
2018-09-10T11:18:31.241Z,63.95
2018-09-10T11:19:31.312Z,62.19
2018-09-10T11:20:31.380Z,62.78
2018-09-10T11:21:31.461Z,63.56
2018-09-10T11:22:31.528Z,63.33
2018-09-10T11:23:31.592Z,63.62
2018-09-10T11:24:31.669Z,64.69
2018-09-10T11:25:31.732Z,63.72
2018-09-10T11:26:31.816Z,63.62
2018-09-10T11:27:31.889Z,62.82
2018-09-10T11:28:31.945Z,63.40
2018-09-10T11:29:32.012Z,63.49
2018-09-10T11:30:32.084Z,64.07
2018-09-10T11:31:32.248Z,63.78
2018-09-10T11:32:32.228Z,64.56
2018-09-10T11:33:32.295Z,64.65
2018-09-10T11:34:32.393Z,64.69
2018-09-10T11:35:32.437Z,63.62
2018-09-10T11:36:32.513Z,64.65
2018-09-10T11:37:32.580Z,63.78
2018-09-10T11:38:32.641Z,64.47
2018-09-10T11:39:32.717Z,64.17
2018-09-10T11:40:32.785Z,65.66
2018-09-10T11:41:32.860Z,64.17
2018-09-10T11:42:32.933Z,65.24
2018-09-10T11:43:32.994Z,64.37
2018-09-10T11:44:33.067Z,64.75
2018-09-10T11:45:33.129Z,65.72
2018-09-10T11:46:33.315Z,64.78
2018-09-10T11:47:33.273Z,63.33
2018-09-10T11:48:33.345Z,62.85
2018-09-10T11:49:33.413Z,62.95
2018-09-10T11:50:33.488Z,63.33
2018-09-10T11:51:33.561Z,62.88
2018-09-10T11:52:33.629Z,63.36
2018-09-10T11:53:33.697Z,62.23
2018-09-10T11:54:33.765Z,61.77
2018-09-10T11:55:33.861Z,60.97
2018-09-10T11:56:33.905Z,61.16
2018-09-10T11:57:33.981Z,61.55
2018-09-10T11:58:34.049Z,61.94
2018-09-10T11:59:34.113Z,61.84
2018-09-10T12:00:34.189Z,60.87
2018-09-10T12:01:34.694Z,60.42
2018-09-10T12:02:34.325Z,60.81
2018-09-10T12:03:34.397Z,60.78
2018-09-10T12:04:34.465Z,61.55
2018-09-10T12:05:34.533Z,63.88
2018-09-10T12:06:34.605Z,63.23
2018-09-10T12:07:34.786Z,63.78
2018-09-10T12:08:34.749Z,62.04
2018-09-10T12:09:34.818Z,63.98
2018-09-10T12:10:34.885Z,63.88
2018-09-10T12:11:34.961Z,63.75
2018-09-10T12:12:35.033Z,64.56
2018-09-10T12:13:35.144Z,63.65
2018-09-10T12:14:35.165Z,64.47
2018-09-10T12:15:35.233Z,63.75
2018-09-10T12:16:35.305Z,64.62
2018-09-10T12:17:35.382Z,63.17
2018-09-10T12:18:35.450Z,63.07
2018-09-10T12:19:35.516Z,63.17
2018-09-10T12:20:35.586Z,64.04
2018-09-10T12:21:35.682Z,63.46
2018-09-10T12:22:35.730Z,64.34
2018-09-10T12:23:35.801Z,65.11
2018-09-10T12:24:35.865Z,63.82
2018-09-10T12:25:35.929Z,64.69
2018-09-10T12:26:36.033Z,64.40
2018-09-10T12:27:36.177Z,65.47
2018-09-10T12:28:36.145Z,64.79
2018-09-10T12:29:36.209Z,64.40
2018-09-10T12:30:36.279Z,65.63
2018-09-10T12:31:36.362Z,65.24
2018-09-10T12:32:36.422Z,65.53
2018-09-10T12:33:36.493Z,65.40
2018-09-10T12:34:36.558Z,65.79
2018-09-10T12:35:36.627Z,66.85
2018-09-10T12:36:36.693Z,67.53
2018-09-10T12:37:36.774Z,68.05
2018-09-10T12:38:36.860Z,67.85
2018-09-10T12:39:36.927Z,66.69
2018-09-10T12:40:36.978Z,66.50
2018-09-10T12:41:37.038Z,67.18
2018-09-10T12:42:37.375Z,66.50
2018-09-10T12:43:37.177Z,66.30
2018-09-10T12:44:37.252Z,65.05
2018-09-10T12:45:37.317Z,65.14
2018-09-10T12:46:37.476Z,66.30
2018-09-10T12:47:37.458Z,64.37
2018-09-10T12:48:37.525Z,65.53
2018-09-10T12:49:37.590Z,65.92
2018-09-10T12:50:37.658Z,65.34
2018-09-10T12:51:37.726Z,64.95
2018-09-10T12:52:37.802Z,65.14
2018-09-10T12:53:37.874Z,64.56